sensor_id;sensor_type;location;lat;lon;timestamp;P1;durP1;ratioP1;P2;durP2;ratioP2
25331;SDS011;13284;52.748;13.452;2022-09-27T00:01:02;3.80;;;2.13;;
25331;SDS011;13284;52.748;13.452;2022-09-27T00:03:30;2.90;;;2.67;;
25331;SDS011;13284;52.748;13.452;2022-09-27T00:06:18;2.50;;;2.30;;
25331;SDS011;13284;52.748;13.452;2022-09-27T00:08:49;3.03;;;2.40;;
25331;SDS011;13284;52.748;13.452;2022-09-27T00:13:56;2.80;;;2.50;;
25331;SDS011;13284;52.748;13.452;2022-09-27T00:16:26;3.00;;;2.07;;
25331;SDS011;13284;52.748;13.452;2022-09-27T00:18:57;1.93;;;1.80;;
25331;SDS011;13284;52.748;13.452;2022-09-27T00:21:24;2.20;;;2.00;;
25331;SDS011;13284;52.748;13.452;2022-09-27T00:23:53;2.60;;;2.23;;
25331;SDS011;13284;52.748;13.452;2022-09-27T00:26:19;3.37;;;2.40;;
25331;SDS011;13284;52.748;13.452;2022-09-27T00:28:45;3.83;;;1.97;;
25331;SDS011;13284;52.748;13.452;2022-09-27T00:31:25;3.53;;;2.77;;
25331;SDS011;13284;52.748;13.452;2022-09-27T00:33:56;2.23;;;2.03;;
25331;SDS011;13284;52.748;13.452;2022-09-27T00:36:24;4.57;;;2.20;;
25331;SDS011;13284;52.748;13.452;2022-09-27T00:38:51;5.53;;;2.70;;
25331;SDS011;13284;52.748;13.452;2022-09-27T00:41:19;6.00;;;1.90;;
25331;SDS011;13284;52.748;13.452;2022-09-27T00:43:54;2.50;;;2.30;;
25331;SDS011;13284;52.748;13.452;2022-09-27T00:49:19;3.10;;;2.53;;
25331;SDS011;13284;52.748;13.452;2022-09-27T00:51:58;2.33;;;2.20;;
25331;SDS011;13284;52.748;13.452;2022-09-27T00:54:29;2.00;;;1.90;;
25331;SDS011;13284;52.748;13.452;2022-09-27T00:56:58;2.27;;;2.00;;
25331;SDS011;13284;52.748;13.452;2022-09-27T00:59:29;2.77;;;2.40;;
25331;SDS011;13284;52.748;13.452;2022-09-27T01:02:14;2.40;;;2.00;;
25331;SDS011;13284;52.748;13.452;2022-09-27T01:04:40;4.10;;;2.10;;
25331;SDS011;13284;52.748;13.452;2022-09-27T01:07:08;4.20;;;2.17;;
25331;SDS011;13284;52.748;13.452;2022-09-27T01:09:33;2.80;;;2.27;;
25331;SDS011;13284;52.748;13.452;2022-09-27T01:14:48;2.77;;;2.50;;
25331;SDS011;13284;52.748;13.452;2022-09-27T01:29:05;2.33;;;2.13;;
25331;SDS011;13284;52.748;13.452;2022-09-27T01:31:58;4.10;;;2.20;;
25331;SDS011;13284;52.748;13.452;2022-09-27T01:34:42;2.83;;;2.63;;
25331;SDS011;13284;52.748;13.452;2022-09-27T01:39:46;2.63;;;2.43;;
25331;SDS011;13284;52.748;13.452;2022-09-27T01:42:21;2.80;;;2.50;;
25331;SDS011;13284;52.748;13.452;2022-09-27T01:47:35;3.70;;;2.20;;
25331;SDS011;13284;52.748;13.452;2022-09-27T01:50:17;2.80;;;2.60;;
25331;SDS011;13284;52.748;13.452;2022-09-27T01:53:11;3.73;;;2.70;;
25331;SDS011;13284;52.748;13.452;2022-09-27T01:55:42;2.93;;;2.20;;
25331;SDS011;13284;52.748;13.452;2022-09-27T02:00:41;2.90;;;2.57;;
25331;SDS011;13284;52.748;13.452;2022-09-27T02:03:12;2.30;;;2.10;;
25331;SDS011;13284;52.748;13.452;2022-09-27T02:05:42;3.83;;;2.40;;
25331;SDS011;13284;52.748;13.452;2022-09-27T02:08:20;2.97;;;2.20;;
25331;SDS011;13284;52.748;13.452;2022-09-27T02:11:08;3.63;;;2.27;;
25331;SDS011;13284;52.748;13.452;2022-09-27T02:13:41;3.03;;;2.73;;
25331;SDS011;13284;52.748;13.452;2022-09-27T02:19:05;3.03;;;2.30;;
25331;SDS011;13284;52.748;13.452;2022-09-27T02:21:40;3.83;;;3.43;;
25331;SDS011;13284;52.748;13.452;2022-09-27T02:24:12;2.63;;;2.43;;
25331;SDS011;13284;52.748;13.452;2022-09-27T02:26:45;2.50;;;2.30;;
25331;SDS011;13284;52.748;13.452;2022-09-27T02:29:20;2.97;;;2.23;;
25331;SDS011;13284;52.748;13.452;2022-09-27T02:31:53;3.10;;;2.80;;
25331;SDS011;13284;52.748;13.452;2022-09-27T02:34:20;3.50;;;2.60;;
25331;SDS011;13284;52.748;13.452;2022-09-27T02:36:48;2.50;;;2.30;;
25331;SDS011;13284;52.748;13.452;2022-09-27T02:39:17;2.60;;;2.37;;
25331;SDS011;13284;52.748;13.452;2022-09-27T02:41:43;1.80;;;1.70;;
25331;SDS011;13284;52.748;13.452;2022-09-27T02:44:09;2.40;;;2.20;;
25331;SDS011;13284;52.748;13.452;2022-09-27T02:52:22;1.87;;;1.63;;
25331;SDS011;13284;52.748;13.452;2022-09-27T02:55:17;2.10;;;2.00;;
25331;SDS011;13284;52.748;13.452;2022-09-27T03:01:11;2.40;;;1.97;;
25331;SDS011;13284;52.748;13.452;2022-09-27T03:06:41;1.80;;;1.70;;
25331;SDS011;13284;52.748;13.452;2022-09-27T03:09:21;3.00;;;2.20;;
25331;SDS011;13284;52.748;13.452;2022-09-27T03:11:48;2.23;;;1.80;;
25331;SDS011;13284;52.748;13.452;2022-09-27T03:14:14;2.27;;;1.80;;
25331;SDS011;13284;52.748;13.452;2022-09-27T03:16:40;2.03;;;1.50;;
25331;SDS011;13284;52.748;13.452;2022-09-27T03:19:06;2.43;;;2.00;;
25331;SDS011;13284;52.748;13.452;2022-09-27T03:21:32;2.53;;;1.90;;
25331;SDS011;13284;52.748;13.452;2022-09-27T03:23:58;2.50;;;1.90;;
25331;SDS011;13284;52.748;13.452;2022-09-27T03:26:24;1.67;;;1.57;;
25331;SDS011;13284;52.748;13.452;2022-09-27T03:28:50;2.37;;;2.20;;
25331;SDS011;13284;52.748;13.452;2022-09-27T03:31:15;1.93;;;1.83;;
25331;SDS011;13284;52.748;13.452;2022-09-27T03:33:41;2.20;;;2.00;;
25331;SDS011;13284;52.748;13.452;2022-09-27T03:36:06;1.90;;;1.80;;
25331;SDS011;13284;52.748;13.452;2022-09-27T03:38:32;1.77;;;1.67;;
25331;SDS011;13284;52.748;13.452;2022-09-27T03:40:57;2.90;;;2.20;;
25331;SDS011;13284;52.748;13.452;2022-09-27T03:43:23;1.90;;;1.80;;
25331;SDS011;13284;52.748;13.452;2022-09-27T03:45:49;2.20;;;1.87;;
25331;SDS011;13284;52.748;13.452;2022-09-27T03:48:15;2.53;;;2.33;;
25331;SDS011;13284;52.748;13.452;2022-09-27T03:50:41;1.80;;;1.70;;
25331;SDS011;13284;52.748;13.452;2022-09-27T03:53:06;3.53;;;2.20;;
25331;SDS011;13284;52.748;13.452;2022-09-27T03:55:32;2.30;;;1.80;;
25331;SDS011;13284;52.748;13.452;2022-09-27T03:57:59;2.23;;;2.03;;
25331;SDS011;13284;52.748;13.452;2022-09-27T04:00:25;2.03;;;1.83;;
25331;SDS011;13284;52.748;13.452;2022-09-27T04:02:50;1.90;;;1.80;;
25331;SDS011;13284;52.748;13.452;2022-09-27T04:05:16;2.07;;;1.97;;
25331;SDS011;13284;52.748;13.452;2022-09-27T04:07:45;2.70;;;2.27;;
25331;SDS011;13284;52.748;13.452;2022-09-27T04:10:12;2.53;;;2.10;;
25331;SDS011;13284;52.748;13.452;2022-09-27T04:12:38;2.10;;;1.87;;
25331;SDS011;13284;52.748;13.452;2022-09-27T04:15:04;2.63;;;2.43;;
25331;SDS011;13284;52.748;13.452;2022-09-27T04:17:31;2.50;;;2.30;;
25331;SDS011;13284;52.748;13.452;2022-09-27T04:19:57;2.60;;;2.40;;
25331;SDS011;13284;52.748;13.452;2022-09-27T04:22:22;2.40;;;2.20;;
25331;SDS011;13284;52.748;13.452;2022-09-27T04:24:48;2.93;;;2.50;;
25331;SDS011;13284;52.748;13.452;2022-09-27T04:27:14;2.60;;;2.10;;
25331;SDS011;13284;52.748;13.452;2022-09-27T04:29:41;2.63;;;2.27;;
25331;SDS011;13284;52.748;13.452;2022-09-27T04:32:09;3.33;;;2.53;;
25331;SDS011;13284;52.748;13.452;2022-09-27T04:34:35;2.33;;;2.13;;
25331;SDS011;13284;52.748;13.452;2022-09-27T04:37:19;2.70;;;2.50;;
25331;SDS011;13284;52.748;13.452;2022-09-27T04:39:45;2.70;;;2.50;;
25331;SDS011;13284;52.748;13.452;2022-09-27T04:42:11;5.57;;;2.80;;
25331;SDS011;13284;52.748;13.452;2022-09-27T04:44:36;2.57;;;2.37;;
25331;SDS011;13284;52.748;13.452;2022-09-27T04:47:02;2.57;;;2.30;;
25331;SDS011;13284;52.748;13.452;2022-09-27T04:49:27;3.30;;;3.00;;
25331;SDS011;13284;52.748;13.452;2022-09-27T04:51:53;2.97;;;2.70;;
25331;SDS011;13284;52.748;13.452;2022-09-27T04:54:18;2.60;;;2.40;;
25331;SDS011;13284;52.748;13.452;2022-09-27T04:56:44;7.03;;;4.10;;
25331;SDS011;13284;52.748;13.452;2022-09-27T04:59:10;2.47;;;2.27;;
25331;SDS011;13284;52.748;13.452;2022-09-27T05:01:35;2.70;;;2.50;;
25331;SDS011;13284;52.748;13.452;2022-09-27T05:04:01;2.40;;;2.20;;
25331;SDS011;13284;52.748;13.452;2022-09-27T05:06:26;2.40;;;2.20;;
25331;SDS011;13284;52.748;13.452;2022-09-27T05:08:52;2.53;;;2.33;;
25331;SDS011;13284;52.748;13.452;2022-09-27T05:11:17;3.60;;;3.30;;
25331;SDS011;13284;52.748;13.452;2022-09-27T05:13:43;2.90;;;2.63;;
25331;SDS011;13284;52.748;13.452;2022-09-27T05:16:08;2.90;;;2.60;;
25331;SDS011;13284;52.748;13.452;2022-09-27T05:18:34;2.70;;;2.27;;
25331;SDS011;13284;52.748;13.452;2022-09-27T05:20:59;2.43;;;2.23;;
25331;SDS011;13284;52.748;13.452;2022-09-27T05:23:25;2.50;;;1.80;;
25331;SDS011;13284;52.748;13.452;2022-09-27T05:25:51;2.23;;;2.13;;
25331;SDS011;13284;52.748;13.452;2022-09-27T05:28:20;3.10;;;2.43;;
25331;SDS011;13284;52.748;13.452;2022-09-27T05:30:46;2.50;;;2.30;;
25331;SDS011;13284;52.748;13.452;2022-09-27T05:33:12;2.03;;;1.93;;
25331;SDS011;13284;52.748;13.452;2022-09-27T05:35:37;2.80;;;2.30;;
25331;SDS011;13284;52.748;13.452;2022-09-27T05:38:06;3.17;;;2.53;;
25331;SDS011;13284;52.748;13.452;2022-09-27T05:40:31;2.60;;;2.10;;
25331;SDS011;13284;52.748;13.452;2022-09-27T05:42:57;2.40;;;2.10;;
25331;SDS011;13284;52.748;13.452;2022-09-27T05:45:23;2.93;;;2.30;;
25331;SDS011;13284;52.748;13.452;2022-09-27T05:47:55;2.77;;;2.57;;
25331;SDS011;13284;52.748;13.452;2022-09-27T05:50:22;3.10;;;2.50;;
25331;SDS011;13284;52.748;13.452;2022-09-27T05:52:49;2.57;;;2.30;;
25331;SDS011;13284;52.748;13.452;2022-09-27T05:55:15;3.17;;;2.17;;
25331;SDS011;13284;52.748;13.452;2022-09-27T05:57:40;3.37;;;2.70;;
25331;SDS011;13284;52.748;13.452;2022-09-27T06:00:06;3.77;;;2.30;;
25331;SDS011;13284;52.748;13.452;2022-09-27T06:02:33;3.60;;;2.93;;
25331;SDS011;13284;52.748;13.452;2022-09-27T06:04:59;3.33;;;2.57;;
25331;SDS011;13284;52.748;13.452;2022-09-27T06:07:25;2.53;;;2.30;;
25331;SDS011;13284;52.748;13.452;2022-09-27T06:09:51;2.83;;;2.60;;
25331;SDS011;13284;52.748;13.452;2022-09-27T06:12:17;2.70;;;2.20;;
25331;SDS011;13284;52.748;13.452;2022-09-27T06:14:44;5.33;;;2.70;;
25331;SDS011;13284;52.748;13.452;2022-09-27T06:17:09;3.90;;;2.53;;
25331;SDS011;13284;52.748;13.452;2022-09-27T06:19:35;3.13;;;2.50;;
25331;SDS011;13284;52.748;13.452;2022-09-27T06:22:00;2.60;;;2.37;;
25331;SDS011;13284;52.748;13.452;2022-09-27T06:24:26;1.67;;;1.57;;
25331;SDS011;13284;52.748;13.452;2022-09-27T06:26:51;2.60;;;2.40;;
25331;SDS011;13284;52.748;13.452;2022-09-27T06:29:17;3.20;;;2.90;;
25331;SDS011;13284;52.748;13.452;2022-09-27T06:31:42;2.80;;;2.60;;
25331;SDS011;13284;52.748;13.452;2022-09-27T06:34:08;2.30;;;2.00;;
25331;SDS011;13284;52.748;13.452;2022-09-27T06:36:34;2.70;;;2.50;;
25331;SDS011;13284;52.748;13.452;2022-09-27T06:38:59;2.73;;;2.40;;
25331;SDS011;13284;52.748;13.452;2022-09-27T06:41:25;2.63;;;2.43;;
25331;SDS011;13284;52.748;13.452;2022-09-27T06:43:51;3.70;;;2.50;;
25331;SDS011;13284;52.748;13.452;2022-09-27T06:46:16;2.70;;;2.50;;
25331;SDS011;13284;52.748;13.452;2022-09-27T06:48:42;3.20;;;2.90;;
25331;SDS011;13284;52.748;13.452;2022-09-27T06:51:07;2.43;;;2.23;;
25331;SDS011;13284;52.748;13.452;2022-09-27T06:53:33;2.30;;;2.07;;
25331;SDS011;13284;52.748;13.452;2022-09-27T06:55:59;3.70;;;2.53;;
25331;SDS011;13284;52.748;13.452;2022-09-27T06:58:25;3.30;;;2.50;;
25331;SDS011;13284;52.748;13.452;2022-09-27T07:01:10;3.97;;;2.83;;
25331;SDS011;13284;52.748;13.452;2022-09-27T07:03:36;2.73;;;2.53;;
25331;SDS011;13284;52.748;13.452;2022-09-27T07:06:05;4.50;;;2.30;;
25331;SDS011;13284;52.748;13.452;2022-09-27T07:08:35;2.97;;;2.40;;
25331;SDS011;13284;52.748;13.452;2022-09-27T07:11:04;3.57;;;2.10;;
25331;SDS011;13284;52.748;13.452;2022-09-27T07:13:31;3.17;;;2.80;;
25331;SDS011;13284;52.748;13.452;2022-09-27T07:15:58;3.70;;;2.60;;
25331;SDS011;13284;52.748;13.452;2022-09-27T07:18:25;2.50;;;2.30;;
25331;SDS011;13284;52.748;13.452;2022-09-27T07:20:51;2.23;;;2.03;;
25331;SDS011;13284;52.748;13.452;2022-09-27T07:23:17;2.73;;;2.53;;
25331;SDS011;13284;52.748;13.452;2022-09-27T07:25:43;7.67;;;3.00;;
25331;SDS011;13284;52.748;13.452;2022-09-27T07:28:11;2.80;;;2.13;;
25331;SDS011;13284;52.748;13.452;2022-09-27T07:30:39;2.47;;;2.23;;
25331;SDS011;13284;52.748;13.452;2022-09-27T07:33:06;2.27;;;2.07;;
25331;SDS011;13284;52.748;13.452;2022-09-27T07:35:33;2.80;;;2.50;;
25331;SDS011;13284;52.748;13.452;2022-09-27T07:38:01;3.23;;;2.33;;
25331;SDS011;13284;52.748;13.452;2022-09-27T07:40:29;2.63;;;2.40;;
25331;SDS011;13284;52.748;13.452;2022-09-27T07:42:55;2.13;;;1.93;;
25331;SDS011;13284;52.748;13.452;2022-09-27T07:45:24;2.83;;;2.30;;
25331;SDS011;13284;52.748;13.452;2022-09-27T07:47:50;5.60;;;2.67;;
25331;SDS011;13284;52.748;13.452;2022-09-27T07:50:16;3.00;;;2.20;;
25331;SDS011;13284;52.748;13.452;2022-09-27T07:52:43;4.20;;;2.30;;
25331;SDS011;13284;52.748;13.452;2022-09-27T07:55:11;2.47;;;2.27;;
25331;SDS011;13284;52.748;13.452;2022-09-27T07:57:38;2.50;;;2.00;;
25331;SDS011;13284;52.748;13.452;2022-09-27T08:00:06;2.90;;;2.60;;
25331;SDS011;13284;52.748;13.452;2022-09-27T08:02:34;3.47;;;2.73;;
25331;SDS011;13284;52.748;13.452;2022-09-27T08:04:59;2.73;;;2.53;;
25331;SDS011;13284;52.748;13.452;2022-09-27T08:07:26;3.10;;;2.80;;
25331;SDS011;13284;52.748;13.452;2022-09-27T08:09:52;2.93;;;2.63;;
25331;SDS011;13284;52.748;13.452;2022-09-27T08:12:18;3.10;;;2.50;;
25331;SDS011;13284;52.748;13.452;2022-09-27T08:14:45;3.33;;;2.83;;
25331;SDS011;13284;52.748;13.452;2022-09-27T08:17:12;2.97;;;2.77;;
25331;SDS011;13284;52.748;13.452;2022-09-27T08:19:37;3.60;;;3.27;;
25331;SDS011;13284;52.748;13.452;2022-09-27T08:22:04;2.80;;;2.60;;
25331;SDS011;13284;52.748;13.452;2022-09-27T08:24:30;3.83;;;3.40;;
25331;SDS011;13284;52.748;13.452;2022-09-27T08:26:56;3.00;;;2.70;;
25331;SDS011;13284;52.748;13.452;2022-09-27T08:29:22;3.10;;;2.83;;
25331;SDS011;13284;52.748;13.452;2022-09-27T08:31:49;3.90;;;3.60;;
25331;SDS011;13284;52.748;13.452;2022-09-27T08:34:15;4.00;;;3.37;;
25331;SDS011;13284;52.748;13.452;2022-09-27T08:36:41;2.93;;;2.63;;
25331;SDS011;13284;52.748;13.452;2022-09-27T08:39:07;3.50;;;2.90;;
25331;SDS011;13284;52.748;13.452;2022-09-27T08:41:35;3.57;;;3.27;;
25331;SDS011;13284;52.748;13.452;2022-09-27T08:44:09;4.23;;;3.83;;
25331;SDS011;13284;52.748;13.452;2022-09-27T08:52:12;3.10;;;2.90;;
25331;SDS011;13284;52.748;13.452;2022-09-27T08:54:55;3.40;;;3.10;;
25331;SDS011;13284;52.748;13.452;2022-09-27T08:57:22;3.00;;;2.70;;
25331;SDS011;13284;52.748;13.452;2022-09-27T08:59:52;3.50;;;3.20;;
25331;SDS011;13284;52.748;13.452;2022-09-27T09:02:26;3.87;;;3.47;;
25331;SDS011;13284;52.748;13.452;2022-09-27T09:04:55;3.07;;;2.80;;
25331;SDS011;13284;52.748;13.452;2022-09-27T09:07:30;3.00;;;2.77;;
25331;SDS011;13284;52.748;13.452;2022-09-27T09:13:08;4.73;;;3.20;;
25331;SDS011;13284;52.748;13.452;2022-09-27T09:15:59;4.00;;;3.30;;
25331;SDS011;13284;52.748;13.452;2022-09-27T09:21:35;4.43;;;3.27;;
25331;SDS011;13284;52.748;13.452;2022-09-27T09:24:39;3.13;;;2.93;;
25331;SDS011;13284;52.748;13.452;2022-09-27T09:27:26;3.43;;;3.10;;
25331;SDS011;13284;52.748;13.452;2022-09-27T09:30:19;3.70;;;3.23;;
25331;SDS011;13284;52.748;13.452;2022-09-27T09:35:26;3.80;;;3.40;;
25331;SDS011;13284;52.748;13.452;2022-09-27T09:37:59;3.33;;;3.03;;
25331;SDS011;13284;52.748;13.452;2022-09-27T09:40:37;3.10;;;2.90;;
25331;SDS011;13284;52.748;13.452;2022-09-27T09:43:24;3.03;;;2.83;;
25331;SDS011;13284;52.748;13.452;2022-09-27T09:48:54;3.23;;;2.97;;
25331;SDS011;13284;52.748;13.452;2022-09-27T09:51:38;3.27;;;2.97;;
25331;SDS011;13284;52.748;13.452;2022-09-27T09:54:25;3.10;;;2.90;;
25331;SDS011;13284;52.748;13.452;2022-09-27T10:00:04;3.70;;;3.20;;
25331;SDS011;13284;52.748;13.452;2022-09-27T10:02:38;3.30;;;3.10;;
25331;SDS011;13284;52.748;13.452;2022-09-27T10:05:06;4.00;;;3.67;;
25331;SDS011;13284;52.748;13.452;2022-09-27T10:07:38;3.30;;;3.00;;
25331;SDS011;13284;52.748;13.452;2022-09-27T10:10:05;3.93;;;3.63;;
25331;SDS011;13284;52.748;13.452;2022-09-27T10:12:32;3.63;;;3.33;;
25331;SDS011;13284;52.748;13.452;2022-09-27T10:14:59;3.60;;;3.30;;
25331;SDS011;13284;52.748;13.452;2022-09-27T10:17:33;3.47;;;3.17;;
25331;SDS011;13284;52.748;13.452;2022-09-27T10:20:03;4.27;;;3.90;;
25331;SDS011;13284;52.748;13.452;2022-09-27T10:22:38;3.60;;;3.30;;
25331;SDS011;13284;52.748;13.452;2022-09-27T10:25:09;3.27;;;3.00;;
25331;SDS011;13284;52.748;13.452;2022-09-27T10:30:05;3.97;;;3.57;;
25331;SDS011;13284;52.748;13.452;2022-09-27T10:32:44;4.23;;;3.63;;
25331;SDS011;13284;52.748;13.452;2022-09-27T10:37:53;3.87;;;3.57;;
25331;SDS011;13284;52.748;13.452;2022-09-27T10:40:35;3.97;;;3.63;;
25331;SDS011;13284;52.748;13.452;2022-09-27T10:43:01;4.00;;;3.70;;
25331;SDS011;13284;52.748;13.452;2022-09-27T10:45:45;4.20;;;3.90;;
25331;SDS011;13284;52.748;13.452;2022-09-27T10:48:17;4.00;;;3.70;;
25331;SDS011;13284;52.748;13.452;2022-09-27T10:50:59;4.83;;;4.43;;
25331;SDS011;13284;52.748;13.452;2022-09-27T10:53:27;3.90;;;3.60;;
25331;SDS011;13284;52.748;13.452;2022-09-27T10:55:54;4.00;;;3.70;;
25331;SDS011;13284;52.748;13.452;2022-09-27T10:58:30;3.90;;;3.60;;
25331;SDS011;13284;52.748;13.452;2022-09-27T11:00:59;3.93;;;3.63;;
25331;SDS011;13284;52.748;13.452;2022-09-27T11:03:31;3.97;;;3.67;;
25331;SDS011;13284;52.748;13.452;2022-09-27T11:08:52;5.03;;;4.63;;
25331;SDS011;13284;52.748;13.452;2022-09-27T11:14:05;3.67;;;3.37;;
25331;SDS011;13284;52.748;13.452;2022-09-27T11:19:32;4.43;;;4.00;;
25331;SDS011;13284;52.748;13.452;2022-09-27T11:22:04;3.20;;;2.90;;
25331;SDS011;13284;52.748;13.452;2022-09-27T11:30:36;3.60;;;3.30;;
25331;SDS011;13284;52.748;13.452;2022-09-27T11:42:12;3.20;;;2.90;;
25331;SDS011;13284;52.748;13.452;2022-09-27T11:45:09;3.90;;;3.37;;
25331;SDS011;13284;52.748;13.452;2022-09-27T11:47:48;4.10;;;3.17;;
25331;SDS011;13284;52.748;13.452;2022-09-27T11:50:47;4.80;;;3.57;;
25331;SDS011;13284;52.748;13.452;2022-09-27T11:53:23;4.90;;;4.60;;
25331;SDS011;13284;52.748;13.452;2022-09-27T11:59:12;3.63;;;3.33;;
25331;SDS011;13284;52.748;13.452;2022-09-27T12:01:59;3.37;;;3.13;;
25331;SDS011;13284;52.748;13.452;2022-09-27T12:04:44;3.83;;;3.53;;
25331;SDS011;13284;52.748;13.452;2022-09-27T12:07:25;3.83;;;3.27;;
25331;SDS011;13284;52.748;13.452;2022-09-27T12:10:10;3.67;;;3.40;;
25331;SDS011;13284;52.748;13.452;2022-09-27T12:12:38;3.70;;;3.40;;
25331;SDS011;13284;52.748;13.452;2022-09-27T12:15:22;2.30;;;2.03;;
25331;SDS011;13284;52.748;13.452;2022-09-27T12:17:55;1.17;;;0.60;;
25331;SDS011;13284;52.748;13.452;2022-09-27T12:20:35;0.50;;;0.50;;
25331;SDS011;13284;52.748;13.452;2022-09-27T12:23:05;0.67;;;0.67;;
25331;SDS011;13284;52.748;13.452;2022-09-27T12:25:36;0.50;;;0.50;;
25331;SDS011;13284;52.748;13.452;2022-09-27T12:28:15;0.73;;;0.60;;
25331;SDS011;13284;52.748;13.452;2022-09-27T12:30:46;0.80;;;0.80;;
25331;SDS011;13284;52.748;13.452;2022-09-27T12:35:59;0.90;;;0.63;;
25331;SDS011;13284;52.748;13.452;2022-09-27T12:41:08;0.90;;;0.70;;
25331;SDS011;13284;52.748;13.452;2022-09-27T12:43:37;0.80;;;0.70;;
25331;SDS011;13284;52.748;13.452;2022-09-27T12:46:19;1.17;;;0.90;;
25331;SDS011;13284;52.748;13.452;2022-09-27T12:48:53;2.00;;;1.07;;
25331;SDS011;13284;52.748;13.452;2022-09-27T12:51:40;0.90;;;0.70;;
25331;SDS011;13284;52.748;13.452;2022-09-27T12:54:21;1.73;;;0.83;;
25331;SDS011;13284;52.748;13.452;2022-09-27T12:57:17;1.13;;;0.80;;
25331;SDS011;13284;52.748;13.452;2022-09-27T12:59:58;0.87;;;0.77;;
25331;SDS011;13284;52.748;13.452;2022-09-27T13:14:19;1.13;;;1.00;;
25331;SDS011;13284;52.748;13.452;2022-09-27T13:16:47;1.00;;;0.90;;
25331;SDS011;13284;52.748;13.452;2022-09-27T13:19:37;1.60;;;1.50;;
25331;SDS011;13284;52.748;13.452;2022-09-27T13:24:51;0.67;;;0.67;;
25331;SDS011;13284;52.748;13.452;2022-09-27T13:29:51;3.07;;;1.37;;
25331;SDS011;13284;52.748;13.452;2022-09-27T13:32:37;0.97;;;0.90;;
25331;SDS011;13284;52.748;13.452;2022-09-27T13:37:47;1.30;;;1.20;;
25331;SDS011;13284;52.748;13.452;2022-09-27T13:40:28;1.03;;;0.87;;
25331;SDS011;13284;52.748;13.452;2022-09-27T13:45:57;0.80;;;0.80;;
25331;SDS011;13284;52.748;13.452;2022-09-27T13:48:30;1.80;;;0.90;;
25331;SDS011;13284;52.748;13.452;2022-09-27T13:50:59;0.87;;;0.63;;
25331;SDS011;13284;52.748;13.452;2022-09-27T13:53:35;2.40;;;1.23;;
25331;SDS011;13284;52.748;13.452;2022-09-27T13:56:03;1.23;;;0.90;;
25331;SDS011;13284;52.748;13.452;2022-09-27T13:58:46;0.80;;;0.80;;
25331;SDS011;13284;52.748;13.452;2022-09-27T14:01:27;1.90;;;0.83;;
25331;SDS011;13284;52.748;13.452;2022-09-27T14:04:01;3.80;;;1.47;;
25331;SDS011;13284;52.748;13.452;2022-09-27T14:06:35;2.53;;;1.30;;
25331;SDS011;13284;52.748;13.452;2022-09-27T14:09:19;1.90;;;1.13;;
25331;SDS011;13284;52.748;13.452;2022-09-27T14:11:50;1.30;;;1.20;;
25331;SDS011;13284;52.748;13.452;2022-09-27T14:14:18;1.20;;;1.10;;
25331;SDS011;13284;52.748;13.452;2022-09-27T14:16:47;1.63;;;1.10;;
25331;SDS011;13284;52.748;13.452;2022-09-27T14:19:22;1.53;;;1.33;;
25331;SDS011;13284;52.748;13.452;2022-09-27T14:21:51;1.27;;;1.17;;
25331;SDS011;13284;52.748;13.452;2022-09-27T14:24:25;1.60;;;1.07;;
25331;SDS011;13284;52.748;13.452;2022-09-27T14:29:51;1.90;;;1.00;;
25331;SDS011;13284;52.748;13.452;2022-09-27T14:32:24;1.20;;;1.03;;
25331;SDS011;13284;52.748;13.452;2022-09-27T14:35:10;0.90;;;0.90;;
25331;SDS011;13284;52.748;13.452;2022-09-27T14:38:20;1.43;;;1.17;;
25331;SDS011;13284;52.748;13.452;2022-09-27T14:41:14;2.07;;;1.30;;
25331;SDS011;13284;52.748;13.452;2022-09-27T14:43:41;2.33;;;1.10;;
25331;SDS011;13284;52.748;13.452;2022-09-27T14:46:50;2.33;;;1.00;;
25331;SDS011;13284;52.748;13.452;2022-09-27T14:53:01;1.40;;;1.30;;
25331;SDS011;13284;52.748;13.452;2022-09-27T14:55:29;2.00;;;1.30;;
25331;SDS011;13284;52.748;13.452;2022-09-27T15:00:56;2.37;;;0.83;;
25331;SDS011;13284;52.748;13.452;2022-09-27T15:03:45;1.17;;;1.07;;
25331;SDS011;13284;52.748;13.452;2022-09-27T15:06:16;1.00;;;0.77;;
25331;SDS011;13284;52.748;13.452;2022-09-27T15:08:45;1.03;;;1.00;;
25331;SDS011;13284;52.748;13.452;2022-09-27T15:11:34;1.07;;;1.00;;
25331;SDS011;13284;52.748;13.452;2022-09-27T15:14:00;1.40;;;0.80;;
25331;SDS011;13284;52.748;13.452;2022-09-27T15:16:28;1.00;;;0.90;;
25331;SDS011;13284;52.748;13.452;2022-09-27T15:19:02;1.00;;;0.80;;
25331;SDS011;13284;52.748;13.452;2022-09-27T15:21:39;1.10;;;1.00;;
25331;SDS011;13284;52.748;13.452;2022-09-27T15:24:04;2.60;;;1.37;;
25331;SDS011;13284;52.748;13.452;2022-09-27T15:26:50;0.93;;;0.90;;
25331;SDS011;13284;52.748;13.452;2022-09-27T15:29:19;1.80;;;1.27;;
25331;SDS011;13284;52.748;13.452;2022-09-27T15:34:26;1.57;;;1.37;;
25331;SDS011;13284;52.748;13.452;2022-09-27T15:36:54;1.67;;;1.00;;
25331;SDS011;13284;52.748;13.452;2022-09-27T15:39:36;1.20;;;1.10;;
25331;SDS011;13284;52.748;13.452;2022-09-27T15:42:13;1.47;;;1.37;;
25331;SDS011;13284;52.748;13.452;2022-09-27T15:44:53;1.20;;;1.10;;
25331;SDS011;13284;52.748;13.452;2022-09-27T15:52:42;1.57;;;1.43;;
25331;SDS011;13284;52.748;13.452;2022-09-27T15:55:16;1.40;;;1.30;;
25331;SDS011;13284;52.748;13.452;2022-09-27T15:57:44;2.37;;;2.17;;
25331;SDS011;13284;52.748;13.452;2022-09-27T16:00:15;1.77;;;1.50;;
25331;SDS011;13284;52.748;13.452;2022-09-27T16:02:46;1.77;;;1.20;;
25331;SDS011;13284;52.748;13.452;2022-09-27T16:05:12;1.87;;;1.50;;
25331;SDS011;13284;52.748;13.452;2022-09-27T16:07:40;1.63;;;1.40;;
25331;SDS011;13284;52.748;13.452;2022-09-27T16:10:12;2.80;;;1.40;;
25331;SDS011;13284;52.748;13.452;2022-09-27T16:12:43;1.83;;;1.60;;
25331;SDS011;13284;52.748;13.452;2022-09-27T16:15:12;1.87;;;1.63;;
25331;SDS011;13284;52.748;13.452;2022-09-27T16:17:38;2.13;;;1.73;;
25331;SDS011;13284;52.748;13.452;2022-09-27T16:20:06;1.73;;;1.63;;
25331;SDS011;13284;52.748;13.452;2022-09-27T16:22:45;2.00;;;1.70;;
25331;SDS011;13284;52.748;13.452;2022-09-27T16:25:11;2.13;;;1.90;;
25331;SDS011;13284;52.748;13.452;2022-09-27T16:27:36;1.60;;;1.50;;
25331;SDS011;13284;52.748;13.452;2022-09-27T16:30:02;1.77;;;1.67;;
25331;SDS011;13284;52.748;13.452;2022-09-27T16:32:28;2.83;;;1.73;;
25331;SDS011;13284;52.748;13.452;2022-09-27T16:34:54;3.10;;;1.97;;
25331;SDS011;13284;52.748;13.452;2022-09-27T16:37:20;1.93;;;1.80;;
25331;SDS011;13284;52.748;13.452;2022-09-27T16:39:46;2.60;;;1.80;;
25331;SDS011;13284;52.748;13.452;2022-09-27T16:42:12;1.80;;;1.60;;
25331;SDS011;13284;52.748;13.452;2022-09-27T16:44:38;2.30;;;1.70;;
25331;SDS011;13284;52.748;13.452;2022-09-27T16:47:04;1.87;;;1.77;;
25331;SDS011;13284;52.748;13.452;2022-09-27T16:49:31;2.33;;;2.13;;
25331;SDS011;13284;52.748;13.452;2022-09-27T16:52:15;2.42;;;1.90;;
25331;SDS011;13284;52.748;13.452;2022-09-27T16:54:41;2.73;;;1.87;;
25331;SDS011;13284;52.748;13.452;2022-09-27T16:57:07;3.13;;;2.00;;
25331;SDS011;13284;52.748;13.452;2022-09-27T16:59:33;1.60;;;1.50;;
25331;SDS011;13284;52.748;13.452;2022-09-27T17:01:58;1.83;;;1.73;;
25331;SDS011;13284;52.748;13.452;2022-09-27T17:04:25;1.90;;;1.80;;
25331;SDS011;13284;52.748;13.452;2022-09-27T17:06:52;5.10;;;3.50;;
25331;SDS011;13284;52.748;13.452;2022-09-27T17:09:21;1.57;;;1.47;;
25331;SDS011;13284;52.748;13.452;2022-09-27T17:11:47;1.70;;;1.60;;
25331;SDS011;13284;52.748;13.452;2022-09-27T17:14:13;1.87;;;1.60;;
25331;SDS011;13284;52.748;13.452;2022-09-27T17:16:42;1.63;;;1.50;;